createdAt,value
2017-08-02T00:00:03.215Z,-1.5
2017-08-02T00:01:02.229Z,-1.5
2017-08-02T00:01:32.633Z,-1.5
2017-08-02T00:02:03.034Z,-1.5
2017-08-02T00:02:33.558Z,-1.5
2017-08-02T00:03:04.082Z,-1.5
2017-08-02T00:03:34.593Z,-1.5
2017-08-02T00:05:00.241Z,-1.5
2017-08-02T00:05:59.441Z,-1.5
2017-08-02T00:06:59.151Z,-1.5
2017-08-02T00:07:58.362Z,-1.5
2017-08-02T00:08:57.832Z,-1.5
2017-08-02T00:09:57.557Z,-1.5
2017-08-02T00:10:56.752Z,-1.4
2017-08-02T00:11:56.469Z,-1.5
2017-08-02T00:12:55.559Z,-1.6
2017-08-02T00:13:55.280Z,-1.6
2017-08-02T00:14:54.375Z,-1.6
2017-08-02T00:15:53.959Z,-1.6
2017-08-02T00:16:24.241Z,-1.6
2017-08-02T00:17:52.635Z,-1.5
2017-08-02T00:18:52.340Z,-1.5
2017-08-02T00:19:51.422Z,-1.4
2017-08-02T00:20:50.902Z,-1.4
2017-08-02T00:21:50.597Z,-1.4
2017-08-02T00:22:49.565Z,-1.4
2017-08-02T00:23:49.154Z,-1.5
2017-08-02T00:24:48.630Z,-1.5
2017-08-02T00:25:19.017Z,-1.5
2017-08-02T00:26:47.431Z,-1.4
2017-08-02T00:27:47.140Z,-1.5
2017-08-02T00:28:46.098Z,-1.4
2017-08-02T00:29:45.689Z,-1.4
2017-08-02T00:30:45.412Z,-1.5
2017-08-02T00:31:44.271Z,-1.5
2017-08-02T00:32:43.975Z,-1.5
2017-08-02T00:33:43.684Z,-1.6
2017-08-02T00:34:42.890Z,-1.5
2017-08-02T00:35:41.859Z,-1.5
2017-08-02T00:36:41.581Z,-1.5
2017-08-02T00:37:41.170Z,-1.5
2017-08-02T00:39:40.028Z,-1.5
2017-08-02T00:40:39.386Z,-1.6
2017-08-02T00:41:39.099Z,-1.5
2017-08-02T00:42:38.078Z,-1.5
2017-08-02T00:43:37.559Z,-1.5
2017-08-02T00:44:37.024Z,-1.4
2017-08-02T00:46:36.120Z,-1.5
2017-08-02T00:47:35.207Z,-1.5
2017-08-02T00:48:34.917Z,-1.5
2017-08-02T00:49:34.128Z,-1.5
2017-08-02T00:50:33.836Z,-1.5
2017-08-02T00:51:32.929Z,-1.5
2017-08-02T00:52:32.519Z,-1.4
2017-08-02T00:53:31.637Z,-1.4
2017-08-02T00:54:31.111Z,-1.4
2017-08-02T00:55:30.813Z,-1.4
2017-08-02T00:56:00.994Z,-1.4
2017-08-02T00:56:32.011Z,-1.4
2017-08-02T00:57:01.942Z,-1.4
2017-08-02T00:57:32.950Z,-1.4
2017-08-02T00:58:29.139Z,-1.4
2017-08-02T00:59:28.236Z,-1.5
2017-08-02T01:00:27.941Z,-1.5
2017-08-02T01:01:27.146Z,-1.5
2017-08-02T01:02:26.363Z,-1.5
2017-08-02T01:03:25.956Z,-1.4
2017-08-02T01:04:25.044Z,-1.4
2017-08-02T01:05:24.640Z,-1.4
2017-08-02T01:06:24.224Z,-1.5
2017-08-02T01:07:23.322Z,-1.4
2017-08-02T01:08:23.028Z,-1.5
2017-08-02T01:09:22.122Z,-1.5
2017-08-02T01:10:21.603Z,-1.5
2017-08-02T01:11:21.310Z,-1.5
2017-08-02T01:11:51.593Z,-1.5
2017-08-02T01:12:22.105Z,-1.5
2017-08-02T01:13:20.174Z,-1.5
2017-08-02T01:14:19.401Z,-1.5
2017-08-02T01:15:19.108Z,-1.4
2017-08-02T01:16:18.319Z,-1.4
2017-08-02T01:17:17.400Z,-1.4
2017-08-02T01:18:17.091Z,-1.4
2017-08-02T01:19:16.685Z,-1.4
2017-08-02T01:20:15.889Z,-1.5
2017-08-02T01:21:15.471Z,-1.5
2017-08-02T01:22:14.567Z,-1.5
2017-08-02T01:23:14.287Z,-1.5
2017-08-02T01:24:13.498Z,-1.5
2017-08-02T01:25:12.979Z,-1.5
2017-08-02T01:26:12.179Z,-1.5
2017-08-02T01:27:11.771Z,-1.5
2017-08-02T01:28:11.353Z,-1.5
2017-08-02T01:29:10.313Z,-1.5
2017-08-02T01:30:09.911Z,-1.4
2017-08-02T01:31:09.634Z,-1.4
2017-08-02T01:32:08.849Z,-1.3
2017-08-02T01:33:07.943Z,-1.4
2017-08-02T01:34:07.550Z,-1.4
2017-08-02T01:35:07.264Z,-1.4
2017-08-02T01:36:06.473Z,-1.5
2017-08-02T01:37:05.688Z,-1.4
2017-08-02T01:38:05.397Z,-1.4
2017-08-02T01:39:04.261Z,-1.3
2017-08-02T01:40:03.729Z,-1.3
2017-08-02T01:41:03.447Z,-1.2
2017-08-02T01:42:03.044Z,-1.2
2017-08-02T01:43:02.128Z,-1.2
2017-08-02T01:44:01.603Z,-1.2
2017-08-02T01:45:01.198Z,-1.1
2017-08-02T01:46:00.285Z,-1.1
2017-08-02T01:46:59.985Z,-1
2017-08-02T01:47:59.565Z,-1.1
2017-08-02T01:48:58.651Z,-1.2
2017-08-02T01:49:58.387Z,-1.2
2017-08-02T01:50:57.586Z,-1.2
2017-08-02T01:51:27.768Z,-1.2
2017-08-02T01:51:58.777Z,-1.2
2017-08-02T01:52:29.858Z,-1.2
2017-08-02T01:52:59.633Z,-1.2
2017-08-02T01:53:30.149Z,-1.2
2017-08-02T01:54:55.012Z,-1.2
2017-08-02T01:55:54.719Z,-1.2
2017-08-02T01:56:53.807Z,-1.1
2017-08-02T01:57:53.517Z,-1.2
2017-08-02T01:58:52.492Z,-1.2
2017-08-02T01:59:51.958Z,-1.2
2017-08-02T02:00:51.425Z,-1.2
2017-08-02T02:01:51.013Z,-1.2
2017-08-02T02:02:49.988Z,-1.1
2017-08-02T02:03:20.767Z,-1.1
2017-08-02T02:03:51.151Z,-1.1
2017-08-02T02:04:21.539Z,-1.1
2017-08-02T02:04:52.064Z,-1.1
2017-08-02T02:05:22.596Z,-1.1
2017-08-02T02:05:53.137Z,-1.1
2017-08-02T02:06:23.530Z,-1.1
2017-08-02T02:07:47.399Z,-1
2017-08-02T02:08:46.487Z,-1
2017-08-02T02:09:46.194Z,-1.1
2017-08-02T02:10:45.394Z,-1.1
2017-08-02T02:11:45.107Z,-1.1
2017-08-02T02:12:44.186Z,-1.1
2017-08-02T02:13:43.773Z,-1.1
2017-08-02T02:14:42.852Z,-1.1
2017-08-02T02:15:42.453Z,-1.1
2017-08-02T02:16:42.168Z,-1.2
2017-08-02T02:17:41.378Z,-1.2
2017-08-02T02:18:40.876Z,-1.3
2017-08-02T02:19:39.966Z,-1.2
2017-08-02T02:20:39.670Z,-1.1
2017-08-02T02:21:38.878Z,-1.2
2017-08-02T02:22:37.978Z,-1.2
2017-08-02T02:23:08.025Z,-1.2
2017-08-02T02:23:38.921Z,-1.2
2017-08-02T02:24:09.451Z,-1.2
2017-08-02T02:24:39.966Z,-1.2
2017-08-02T02:25:36.419Z,-1.2
2017-08-02T02:26:36.010Z,-1.2
2017-08-02T02:27:35.238Z,-1.2
2017-08-02T02:28:34.437Z,-1.2
2017-08-02T02:29:34.038Z,-1.2
2017-08-02T02:30:33.235Z,-1.1
2017-08-02T02:31:32.961Z,-1.1
2017-08-02T02:32:32.168Z,-1.1
2017-08-02T02:33:31.632Z,-1.1
2017-08-02T02:34:30.853Z,-1
2017-08-02T02:35:30.586Z,-0.9
2017-08-02T02:36:29.788Z,-0.9
2017-08-02T02:37:29.408Z,-0.9
2017-08-02T02:38:28.612Z,-0.9
2017-08-02T02:39:27.834Z,-0.9
2017-08-02T02:40:27.432Z,-0.8
2017-08-02T02:41:26.658Z,-0.9
2017-08-02T02:42:26.376Z,-1
2017-08-02T02:43:25.468Z,-1.1
2017-08-02T02:44:24.818Z,-0.9
2017-08-02T02:45:24.407Z,-1
2017-08-02T02:45:54.931Z,-1
2017-08-02T02:47:22.972Z,-1.1
2017-08-02T02:48:22.207Z,-1.2
2017-08-02T02:49:21.718Z,-1.1
2017-08-02T02:50:21.186Z,-1.1
2017-08-02T02:51:20.894Z,-1.2
2017-08-02T02:52:19.971Z,-1.2
2017-08-02T02:53:19.690Z,-1
2017-08-02T02:54:18.784Z,-1
2017-08-02T02:55:17.985Z,-0.9
2017-08-02T02:56:17.711Z,-1
2017-08-02T02:57:16.693Z,-0.9
2017-08-02T02:58:16.403Z,-1
2017-08-02T02:59:15.620Z,-1
2017-08-02T03:00:15.321Z,-0.9
2017-08-02T03:01:14.539Z,-1
2017-08-02T03:01:45.063Z,-1
2017-08-02T03:02:15.459Z,-1.1
2017-08-02T03:03:12.803Z,-0.9
2017-08-02T03:04:12.514Z,-0.9
2017-08-02T03:05:12.104Z,-0.9
2017-08-02T03:06:11.325Z,-1
2017-08-02T03:07:11.029Z,-0.9
2017-08-02T03:08:10.116Z,-0.9
2017-08-02T03:09:09.699Z,-0.9
2017-08-02T03:10:08.926Z,-0.9
2017-08-02T03:11:08.132Z,-1
2017-08-02T03:12:07.601Z,-1
2017-08-02T03:13:07.316Z,-0.9
2017-08-02T03:14:06.398Z,-0.9
2017-08-02T03:15:06.132Z,-0.9
2017-08-02T03:17:04.507Z,-1
2017-08-02T03:18:04.213Z,-1
2017-08-02T03:19:03.428Z,-1
2017-08-02T03:20:02.641Z,-1
2017-08-02T03:21:02.115Z,-1
2017-08-02T03:22:01.324Z,-1
2017-08-02T03:23:00.797Z,-1
2017-08-02T03:24:00.281Z,-1
2017-08-02T03:24:59.367Z,-0.9
2017-08-02T03:25:59.100Z,-0.9
2017-08-02T03:26:58.181Z,-0.8
2017-08-02T03:27:57.893Z,-0.9
2017-08-02T03:28:57.109Z,-1
2017-08-02T03:29:56.314Z,-0.8
2017-08-02T03:30:56.045Z,-0.9
2017-08-02T03:31:26.332Z,-0.9
2017-08-02T03:31:56.715Z,-0.9
2017-08-02T03:32:26.996Z,-0.9
2017-08-02T03:33:53.883Z,-0.9
2017-08-02T03:34:53.586Z,-0.8
2017-08-02T03:35:52.801Z,-0.9
2017-08-02T03:36:51.654Z,-0.9
2017-08-02T03:37:51.119Z,-0.9
2017-08-02T03:38:50.728Z,-0.9
2017-08-02T03:39:50.434Z,-0.9
2017-08-02T03:40:49.638Z,-0.9
2017-08-02T03:41:48.603Z,-0.9
2017-08-02T03:42:48.299Z,-0.9
2017-08-02T03:43:47.876Z,-0.9
2017-08-02T03:44:46.846Z,-0.9
2017-08-02T03:45:46.445Z,-0.9
2017-08-02T03:47:45.545Z,-0.9
2017-08-02T03:48:44.754Z,-0.9
2017-08-02T03:49:43.846Z,-0.9
2017-08-02T03:50:43.318Z,-0.9
2017-08-02T03:51:43.036Z,-1
2017-08-02T03:52:42.253Z,-1
2017-08-02T03:53:41.447Z,-1
2017-08-02T03:54:11.958Z,-1
2017-08-02T03:54:42.473Z,-0.9
2017-08-02T03:55:12.846Z,-0.9
2017-08-02T03:56:39.735Z,-1.1
2017-08-02T03:57:38.829Z,-1
2017-08-02T03:58:38.544Z,-1
2017-08-02T03:59:37.754Z,-1
2017-08-02T04:00:36.959Z,-0.9
2017-08-02T04:01:36.666Z,-1
2017-08-02T04:02:35.641Z,-0.8
2017-08-02T04:03:35.346Z,-0.9
2017-08-02T04:04:34.560Z,-0.9
2017-08-02T04:05:34.260Z,-1
2017-08-02T04:06:33.476Z,-1
2017-08-02T04:07:32.567Z,-1.1
2017-08-02T04:08:32.162Z,-1.1
2017-08-02T04:09:31.380Z,-1.2
2017-08-02T04:10:31.084Z,-1.1
2017-08-02T04:11:30.177Z,-1
2017-08-02T04:12:29.901Z,-1.1
2017-08-02T04:13:00.413Z,-1.1
2017-08-02T04:13:30.933Z,-1.1
2017-08-02T04:14:01.331Z,-1.1
2017-08-02T04:15:27.726Z,-1
2017-08-02T04:16:26.919Z,-1.1
2017-08-02T04:17:26.508Z,-1.1
2017-08-02T04:18:25.595Z,-1.1
2017-08-02T04:19:25.306Z,-1.1
2017-08-02T04:20:24.395Z,-1
2017-08-02T04:21:23.999Z,-1
2017-08-02T04:22:23.081Z,-1.1
2017-08-02T04:23:22.777Z,-1
2017-08-02T04:23:53.286Z,-1
2017-08-02T04:24:23.569Z,-0.9
2017-08-02T04:24:53.963Z,-0.9
2017-08-02T04:25:24.497Z,-0.9
2017-08-02T04:25:54.899Z,-0.9
2017-08-02T04:27:20.272Z,-0.7
2017-08-02T04:28:19.875Z,-0.6
2017-08-02T04:29:18.960Z,-0.7
2017-08-02T04:30:18.668Z,-0.8
2017-08-02T04:31:17.872Z,-0.8
2017-08-02T04:32:17.078Z,-0.8
2017-08-02T04:33:16.778Z,-0.8
2017-08-02T04:34:15.986Z,-0.8
2017-08-02T04:35:15.197Z,-0.8
2017-08-02T04:36:14.787Z,-0.8
2017-08-02T04:37:13.993Z,-0.8
2017-08-02T04:38:13.455Z,-0.9
2017-08-02T04:39:12.676Z,-0.8
2017-08-02T04:40:12.155Z,-0.7
2017-08-02T04:41:11.362Z,-0.7
2017-08-02T04:42:11.087Z,-0.8
2017-08-02T04:43:10.314Z,-0.8
2017-08-02T04:44:09.401Z,-0.7
2017-08-02T04:45:08.874Z,-0.9
2017-08-02T04:46:08.574Z,-0.8
2017-08-02T04:47:07.775Z,-0.8
2017-08-02T04:48:07.237Z,-0.8
2017-08-02T04:49:06.452Z,-0.7
2017-08-02T04:50:06.056Z,-0.7
2017-08-02T04:51:05.138Z,-0.7
2017-08-02T04:52:04.599Z,-0.6
2017-08-02T04:53:04.196Z,-0.6
2017-08-02T04:54:03.419Z,-0.7
2017-08-02T04:55:03.132Z,-0.7
2017-08-02T04:56:01.991Z,-0.7
2017-08-02T04:57:01.582Z,-0.6
2017-08-02T04:58:01.299Z,-0.7
2017-08-02T04:59:00.263Z,-0.7
2017-08-02T04:59:59.843Z,-0.8
2017-08-02T05:00:59.114Z,-0.9
2017-08-02T05:01:58.319Z,-0.7
2017-08-02T05:03:57.429Z,-0.6
2017-08-02T05:04:56.414Z,-0.7
2017-08-02T05:06:55.404Z,-0.6
2017-08-02T05:07:54.249Z,-0.6
2017-08-02T05:08:54.222Z,-0.6
2017-08-02T05:09:53.320Z,-0.5
2017-08-02T05:10:52.911Z,-0.5
2017-08-02T05:12:51.404Z,-0.6
2017-08-02T05:13:50.997Z,-0.5
2017-08-02T05:14:50.477Z,-0.5
2017-08-02T05:16:49.224Z,-0.6
2017-08-02T05:17:48.434Z,-0.7
2017-08-02T05:18:48.139Z,-0.9
2017-08-02T05:20:46.615Z,-0.9
2017-08-02T05:21:17.020Z,-0.9
2017-08-02T05:21:47.542Z,-0.9
2017-08-02T05:22:18.066Z,-0.9
2017-08-02T05:22:48.575Z,-0.9
2017-08-02T05:23:19.098Z,-0.9
2017-08-02T05:24:44.473Z,-0.9
2017-08-02T05:25:43.332Z,-1
2017-08-02T05:26:42.928Z,-1
2017-08-02T05:27:42.521Z,-1.1
2017-08-02T05:28:41.731Z,-1.2
2017-08-02T05:29:40.940Z,-1.2
2017-08-02T05:31:40.046Z,-1.4
2017-08-02T05:32:39.230Z,-1.4
2017-08-02T05:33:38.433Z,-1.2
2017-08-02T05:34:38.133Z,-1.2
2017-08-02T05:35:37.335Z,-1.3
2017-08-02T05:36:37.060Z,-1.3
2017-08-02T05:37:36.275Z,-1.4
2017-08-02T05:38:35.364Z,-1.4
2017-08-02T05:39:35.072Z,-1.2
2017-08-02T05:40:34.416Z,-1.3
2017-08-02T05:41:33.621Z,-1.2
2017-08-02T05:42:32.827Z,-1.3
2017-08-02T05:43:32.425Z,-1.3
2017-08-02T05:44:31.516Z,-1.3
2017-08-02T05:45:31.214Z,-1.4
2017-08-02T05:46:30.406Z,-1.4
2017-08-02T05:47:29.873Z,-1.4
2017-08-02T05:48:29.595Z,-1.4
2017-08-02T05:49:28.682Z,-1.6
2017-08-02T05:50:27.876Z,-1.9
2017-08-02T05:51:27.591Z,-1.9
2017-08-02T05:52:26.695Z,-2
2017-08-02T05:53:26.050Z,-1.9
2017-08-02T05:54:25.414Z,-1.9
2017-08-02T05:55:25.004Z,-1.8
2017-08-02T05:56:24.079Z,-1.7
2017-08-02T05:57:23.794Z,-1.7
2017-08-02T05:58:22.882Z,-1.7
2017-08-02T05:59:22.585Z,-1.7
2017-08-02T06:00:21.446Z,-1.9
2017-08-02T06:01:20.912Z,-1.9
2017-08-02T06:01:51.200Z,-1.9
2017-08-02T06:03:20.105Z,-1.9
2017-08-02T06:03:50.617Z,-1.9
2017-08-02T06:04:20.765Z,-1.9
2017-08-02T06:05:18.961Z,-2.4
2017-08-02T06:05:49.482Z,-2.4
2017-08-02T06:12:14.208Z,-2.3
2017-08-02T06:13:13.804Z,-2.3
2017-08-02T06:13:44.321Z,-2.3
2017-08-02T06:14:14.842Z,-2.3
2017-08-02T06:14:45.360Z,-2.3
2017-08-02T06:15:15.882Z,-2.2
2017-08-02T06:15:46.404Z,-2.2
2017-08-02T06:17:11.279Z,-2.9
2017-08-02T06:18:10.741Z,-2.8
2017-08-02T06:19:09.950Z,-2.8
2017-08-02T06:21:08.929Z,-2.8
2017-08-02T06:22:08.019Z,-2.8
2017-08-02T06:24:07.003Z,-2.7
2017-08-02T06:25:06.585Z,-2.7
2017-08-02T06:26:05.679Z,-2.6
2017-08-02T06:27:05.276Z,-2.6
2017-08-02T06:28:04.480Z,-2.6
2017-08-02T06:29:04.083Z,-2.5
2017-08-02T06:30:02.948Z,-2.5
2017-08-02T06:32:01.697Z,-2.7
2017-08-02T06:33:01.288Z,-2.7
2017-08-02T06:34:00.906Z,-2.7
2017-08-02T06:34:59.995Z,-2.6
2017-08-02T06:35:59.699Z,-2.6
2017-08-02T06:36:58.782Z,-2.6
2017-08-02T06:37:58.440Z,-2.6
2017-08-02T06:38:57.408Z,-2.5
2017-08-02T06:39:56.886Z,-2.5
2017-08-02T06:40:56.473Z,-2.5
2017-08-02T06:41:55.949Z,-2.5
2017-08-02T06:42:55.538Z,-2.4
2017-08-02T06:43:54.728Z,-2.4
2017-08-02T06:44:54.312Z,-2.4
2017-08-02T06:45:24.821Z,-2.4
2017-08-02T06:46:53.090Z,-2.4
2017-08-02T06:47:51.943Z,-2.3
2017-08-02T06:48:51.431Z,-2.3
2017-08-02T06:49:51.014Z,-2.3
2017-08-02T06:50:50.716Z,-2.3
2017-08-02T06:51:49.806Z,-2.3
2017-08-02T06:52:49.511Z,-2.3
2017-08-02T06:54:48.100Z,-2.3
2017-08-02T06:55:47.801Z,-2.4
2017-08-02T06:56:18.080Z,-2.4
2017-08-02T06:56:48.591Z,-2.3
2017-08-02T06:57:46.287Z,-2.3
2017-08-02T06:58:46.000Z,-2.3
2017-08-02T06:59:44.844Z,-2.3
2017-08-02T07:00:44.443Z,-2.3
2017-08-02T07:01:14.833Z,-2.3
2017-08-02T07:02:43.232Z,-2.2
2017-08-02T07:03:42.951Z,-2.2
2017-08-02T07:04:42.152Z,-2.2
2017-08-02T07:05:41.233Z,-2.1
2017-08-02T07:06:40.930Z,-2.2
2017-08-02T07:07:39.904Z,-2.1
2017-08-02T07:08:39.609Z,-2.2
2017-08-02T07:09:39.319Z,-2.2
2017-08-02T07:10:38.535Z,-2.1
2017-08-02T07:11:09.041Z,-2.1
2017-08-02T07:11:39.571Z,-2.1
2017-08-02T07:12:10.083Z,-2.1
2017-08-02T07:13:36.987Z,-2.1
2017-08-02T07:14:36.075Z,-2.1
2017-08-02T07:15:35.787Z,-2.1
2017-08-02T07:16:35.018Z,-2.1
2017-08-02T07:17:34.133Z,-2.1
2017-08-02T07:18:33.866Z,-2.1
2017-08-02T07:19:32.955Z,-2
2017-08-02T07:20:32.668Z,-2
2017-08-02T07:22:31.025Z,-2
2017-08-02T07:23:01.433Z,-2
2017-08-02T07:23:31.962Z,-2
2017-08-02T07:24:02.401Z,-2
2017-08-02T07:24:32.924Z,-2
2017-08-02T07:25:29.611Z,-2
2017-08-02T07:26:28.700Z,-2
2017-08-02T07:27:28.305Z,-2
2017-08-02T07:28:28.015Z,-2
2017-08-02T07:29:27.109Z,-2
2017-08-02T07:30:26.723Z,-2
2017-08-02T07:31:25.917Z,-2
2017-08-02T07:32:25.636Z,-2
2017-08-02T07:33:24.837Z,-2
2017-08-02T07:34:24.548Z,-2
2017-08-02T07:35:23.752Z,-2
2017-08-02T07:36:23.352Z,-2
2017-08-02T07:37:22.436Z,-2.1
2017-08-02T07:38:22.016Z,-2
2017-08-02T07:39:21.385Z,-2.1
2017-08-02T07:40:20.466Z,-2.1
2017-08-02T07:40:50.873Z,-2.1
2017-08-02T07:41:21.169Z,-2.1
2017-08-02T07:41:51.582Z,-2.1
2017-08-02T07:42:21.743Z,-2.1
2017-08-02T07:42:52.254Z,-2.1
2017-08-02T07:44:18.626Z,-2.1
2017-08-02T07:45:17.835Z,-2.1
2017-08-02T07:46:16.798Z,-2.2
2017-08-02T07:47:16.376Z,-2.2
2017-08-02T07:48:15.966Z,-2.2
2017-08-02T07:49:15.682Z,-2.1
2017-08-02T07:50:14.891Z,-2.1
2017-08-02T07:51:14.101Z,-2.1
2017-08-02T07:51:44.614Z,-2.1
2017-08-02T07:52:15.129Z,-2.1
2017-08-02T07:52:45.660Z,-2.1
2017-08-02T07:53:16.183Z,-2.1
2017-08-02T07:53:46.714Z,-2.1
2017-08-02T07:54:17.230Z,-2.1
2017-08-02T07:54:47.777Z,-2.1
2017-08-02T07:55:18.284Z,-2.1
2017-08-02T07:55:48.683Z,-2.1
2017-08-02T07:57:10.541Z,-2
2017-08-02T07:58:10.262Z,-2
2017-08-02T07:59:09.344Z,-2
2017-08-02T08:00:09.060Z,-2
2017-08-02T08:02:07.571Z,-2.1
2017-08-02T08:03:07.285Z,-2.1
2017-08-02T08:04:06.499Z,-2.1
2017-08-02T08:04:36.893Z,-2.1
2017-08-02T08:06:05.053Z,-2.1
2017-08-02T08:07:04.530Z,-2.1
2017-08-02T08:08:04.133Z,-2.1
2017-08-02T08:09:03.726Z,-2
2017-08-02T08:10:02.949Z,-2
2017-08-02T08:11:02.303Z,-2
2017-08-02T08:12:01.899Z,-1.9
2017-08-02T08:14:00.758Z,-1.9
2017-08-02T08:15:00.223Z,-1.9
2017-08-02T08:15:59.805Z,-1.9
2017-08-02T08:16:59.019Z,-1.9
2017-08-02T08:17:58.624Z,-1.8
2017-08-02T08:18:57.709Z,-1.8
2017-08-02T08:19:57.415Z,-1.7
2017-08-02T08:20:56.495Z,-1.6
2017-08-02T08:21:56.214Z,-1.6
2017-08-02T08:22:55.413Z,-1.6
2017-08-02T08:23:54.888Z,-1.6
2017-08-02T08:24:25.408Z,-1.6
2017-08-02T08:24:55.807Z,-1.6
2017-08-02T08:26:53.283Z,-1.4
2017-08-02T08:27:52.243Z,-1.5
2017-08-02T08:28:51.745Z,-1.5
2017-08-02T08:29:51.459Z,-1.6
2017-08-02T08:30:51.054Z,-1.6
2017-08-02T08:31:49.793Z,-1.6
2017-08-02T08:32:49.767Z,-1.6
2017-08-02T08:33:49.371Z,-1.5
2017-08-02T08:34:48.582Z,-1.5
2017-08-02T08:35:18.988Z,-1.5
2017-08-02T08:35:49.381Z,-1.5
2017-08-02T08:36:19.766Z,-1.5
2017-08-02T08:36:50.168Z,-1.5
2017-08-02T08:37:46.747Z,-1.5
2017-08-02T08:38:46.340Z,-1.5
2017-08-02T08:39:45.426Z,-2.7
2017-08-02T08:40:45.139Z,-2.7
2017-08-02T08:41:44.337Z,-2.7
2017-08-02T08:42:43.934Z,-2.7
2017-08-02T08:43:43.651Z,-2.7
2017-08-02T08:44:42.852Z,-2.7
2017-08-02T08:45:42.067Z,-2.7
2017-08-02T08:46:41.783Z,-2.6
2017-08-02T08:47:40.989Z,-2.6
2017-08-02T08:48:40.693Z,-2.6
2017-08-02T08:49:39.666Z,-2.6
2017-08-02T08:50:39.376Z,-2.6
2017-08-02T08:51:09.889Z,-2.6
2017-08-02T08:51:40.418Z,-2.6
2017-08-02T08:52:10.808Z,-2.6
2017-08-02T08:53:37.702Z,-2.6
2017-08-02T08:54:36.794Z,-2.6
2017-08-02T08:55:36.377Z,-2.6
2017-08-02T08:56:35.843Z,-2.5
2017-08-02T08:57:35.439Z,-2.5
2017-08-02T08:58:34.649Z,-2.5
2017-08-02T08:59:34.227Z,-2.5
2017-08-02T09:00:33.415Z,-2.5
2017-08-02T09:02:32.278Z,-2.4
2017-08-02T09:03:31.989Z,-2.4
2017-08-02T09:06:30.365Z,-2.3
2017-08-02T09:07:29.568Z,-2.3
2017-08-02T09:08:29.280Z,-2.3
2017-08-02T09:09:28.365Z,-2.2
2017-08-02T09:10:28.068Z,-2.2
2017-08-02T09:11:27.432Z,-2.2
2017-08-02T09:12:26.642Z,-2.1
2017-08-02T09:13:26.243Z,-2.1
2017-08-02T09:14:25.838Z,-2.1
2017-08-02T09:15:24.810Z,-2.1
2017-08-02T09:16:24.515Z,-2
2017-08-02T09:18:23.505Z,-2.1
2017-08-02T09:24:19.944Z,-2
2017-08-02T09:27:18.429Z,-1.9
2017-08-02T09:29:17.217Z,-1.9
2017-08-02T09:31:16.527Z,-1.8
2017-08-02T09:31:46.543Z,-1.8
2017-08-02T09:32:17.064Z,-1.8
2017-08-02T09:34:14.424Z,-1.8
2017-08-02T09:34:44.937Z,-1.8
2017-08-02T09:37:12.622Z,-1.7
2017-08-02T09:39:11.610Z,-1.6
2017-08-02T09:41:10.712Z,-1.7
2017-08-02T09:42:09.562Z,-3
2017-08-02T09:44:08.552Z,-3
2017-08-02T09:44:38.956Z,-3
2017-08-02T09:45:09.479Z,-2.9
2017-08-02T09:45:39.987Z,-2.9
2017-08-02T09:48:06.767Z,-2.9
2017-08-02T09:52:04.521Z,-2.9
2017-08-02T09:54:03.006Z,-2.8
2017-08-02T09:55:02.707Z,-2.8
2017-08-02T09:56:02.426Z,-2.8
2017-08-02T09:58:00.781Z,-2.5
2017-08-02T09:59:59.875Z,-2.4
2017-08-02T10:00:59.570Z,-2.4
2017-08-02T10:01:58.540Z,-2.3
2017-08-02T10:02:58.236Z,-2.2
2017-08-02T10:03:28.649Z,-2.2
2017-08-02T10:06:56.206Z,-2.2
2017-08-02T10:07:55.912Z,-2.1
2017-08-02T10:08:54.998Z,-2.1
2017-08-02T10:11:53.368Z,-2.2
2017-08-02T10:12:53.006Z,-2.2
2017-08-02T10:13:51.969Z,-2.2
2017-08-02T10:14:22.368Z,-2.2
2017-08-02T10:15:51.278Z,-2.1
2017-08-02T10:16:21.432Z,-2.1
2017-08-02T10:16:51.838Z,-2.2
2017-08-02T10:17:22.243Z,-2.2
2017-08-02T10:18:49.392Z,-2
2017-08-02T10:20:48.480Z,-1.9
2017-08-02T10:21:48.069Z,-2
2017-08-02T10:22:47.775Z,-1.9
2017-08-02T10:24:46.639Z,-1.7
2017-08-02T10:25:17.154Z,-1.7
2017-08-02T10:25:47.546Z,-1.6
2017-08-02T10:26:45.626Z,-1.5
2017-08-02T10:27:44.702Z,-1.5
2017-08-02T10:29:43.802Z,-1.5
2017-08-02T10:31:42.901Z,-1.7
2017-08-02T10:32:41.981Z,-1.7
2017-08-02T10:33:41.453Z,-1.7
2017-08-02T10:35:40.445Z,-1.9
2017-08-02T10:36:39.687Z,-1.8
2017-08-02T10:37:39.907Z,-1.7
2017-08-02T10:38:39.108Z,-1.7
2017-08-02T10:39:38.817Z,-1.5
2017-08-02T10:40:38.038Z,-1.6
2017-08-02T10:43:36.535Z,-1.5
2017-08-02T10:44:35.903Z,-1.4
2017-08-02T10:49:33.432Z,-0.9
2017-08-02T10:50:33.029Z,-1.1
2017-08-02T10:51:32.602Z,-1
2017-08-02T10:52:31.682Z,-1.1
2017-08-02T10:56:30.074Z,-1.6
2017-08-02T10:59:28.575Z,-1.7
2017-08-02T11:00:27.777Z,-1.8
2017-08-02T11:01:27.478Z,-1.7
2017-08-02T11:02:26.568Z,-1.6
2017-08-02T11:03:26.150Z,-1.6
2017-08-02T11:04:25.763Z,-1.6
2017-08-02T11:05:25.460Z,-1.7
2017-08-02T11:06:24.425Z,-1.7
2017-08-02T11:07:24.160Z,-1.7
2017-08-02T11:08:23.866Z,-1.7
2017-08-02T11:09:23.570Z,-1.9
2017-08-02T11:10:22.779Z,-1.8
2017-08-02T11:11:22.487Z,-1.9
2017-08-02T11:13:21.360Z,-2
2017-08-02T11:14:21.079Z,-1.9
2017-08-02T11:15:20.288Z,-1.9
2017-08-02T11:16:19.753Z,-1.9
2017-08-02T11:17:19.343Z,-1.9
2017-08-02T11:30:12.760Z,-1.6
2017-08-02T11:32:11.756Z,-1.6
2017-08-02T11:35:10.145Z,-1.7
2017-08-02T11:44:05.878Z,-1.4
2017-08-02T11:47:04.230Z,-1.5
2017-08-02T11:52:01.896Z,-1.2
2017-08-02T11:53:01.623Z,-1.3
2017-08-02T11:54:59.979Z,-0.9
2017-08-02T11:56:59.467Z,-0.6
2017-08-02T11:57:29.977Z,-0.6
2017-08-02T11:58:00.262Z,-0.6
2017-08-02T11:58:30.771Z,-0.6
2017-08-02T11:59:00.949Z,-0.7
2017-08-02T11:59:58.140Z,-0.4
2017-08-02T12:00:57.361Z,-0.2
2017-08-02T12:01:56.954Z,-0.2
2017-08-02T12:02:56.537Z,-0.1
2017-08-02T12:03:56.245Z,-0.4
2017-08-02T12:05:54.841Z,-0.6
2017-08-02T12:06:54.563Z,-0.5
2017-08-02T12:08:53.546Z,-0.8
2017-08-02T12:09:53.017Z,-1
2017-08-02T12:10:52.754Z,-0.8
2017-08-02T12:11:51.957Z,-0.8
2017-08-02T12:12:51.652Z,-0.7
2017-08-02T12:13:51.113Z,-0.6
2017-08-02T12:14:50.702Z,-0.6
2017-08-02T12:15:50.290Z,-0.9
2017-08-02T12:16:49.384Z,-0.9
2017-08-02T12:17:49.097Z,-1
2017-08-02T12:18:48.784Z,-1
2017-08-02T12:19:19.187Z,-1
2017-08-02T12:19:49.461Z,-1.1
2017-08-02T12:21:47.448Z,-1.2
2017-08-02T12:24:45.823Z,-0.7
2017-08-02T12:25:45.289Z,-0.5
2017-08-02T12:26:44.979Z,-0.1
2017-08-02T12:27:44.593Z,-0.1
2017-08-02T12:29:43.460Z,-0.2
2017-08-02T12:30:42.936Z,-0.1
2017-08-02T12:31:42.412Z,0.1
2017-08-02T12:32:42.116Z,0
2017-08-02T12:33:41.835Z,-0.2
2017-08-02T12:34:41.040Z,-0.5
2017-08-02T12:35:40.750Z,-0.7
2017-08-02T12:36:39.836Z,-0.4
2017-08-02T12:37:39.431Z,-0.3
2017-08-02T12:38:39.147Z,-0.4
2017-08-02T12:39:09.666Z,-0.4
2017-08-02T12:39:40.182Z,-0.5
2017-08-02T12:40:38.375Z,-0.5
2017-08-02T12:41:38.079Z,-0.6
2017-08-02T12:42:37.054Z,-0.7
2017-08-02T12:43:36.658Z,-0.3
2017-08-02T12:44:36.378Z,-0.3
2017-08-02T12:45:36.103Z,-0.4
2017-08-02T12:46:35.308Z,-0.4
2017-08-02T12:47:34.542Z,-0.4
2017-08-02T12:48:34.780Z,-0.5
2017-08-02T12:49:33.880Z,-0.4
2017-08-02T12:50:33.589Z,-0.4
2017-08-02T12:51:33.181Z,-0.1
2017-08-02T12:52:32.666Z,-0.1
2017-08-02T12:53:32.369Z,0.3
2017-08-02T12:54:32.071Z,0.5
2017-08-02T12:55:02.611Z,0.5
2017-08-02T12:55:33.131Z,0.5
2017-08-02T12:56:03.644Z,0.5
2017-08-02T12:56:34.168Z,0.8
2017-08-02T12:57:29.997Z,0.6
2017-08-02T12:58:29.841Z,0.8
2017-08-02T12:59:29.431Z,0.9
2017-08-02T13:00:29.044Z,1.2
2017-08-02T13:01:28.753Z,1.2
2017-08-02T13:02:27.953Z,1.2
2017-08-02T13:04:27.060Z,0.7
2017-08-02T13:05:26.642Z,0.6
2017-08-02T13:06:26.352Z,0.5
2017-08-02T13:07:26.066Z,0.3
2017-08-02T13:08:25.150Z,-0.2
2017-08-02T13:09:24.872Z,-0.2
2017-08-02T13:10:24.588Z,-0.4
2017-08-02T13:11:24.177Z,-0.5
2017-08-02T13:12:23.902Z,-0.8
2017-08-02T13:13:22.993Z,-0.7
2017-08-02T13:14:22.698Z,-0.7
2017-08-02T13:15:22.298Z,-0.7
2017-08-02T13:16:21.895Z,-0.8
2017-08-02T13:17:21.491Z,-0.8
2017-08-02T13:18:21.220Z,-0.6
2017-08-02T13:19:20.316Z,-0.1
2017-08-02T13:20:19.909Z,0.1
2017-08-02T13:22:19.004Z,0.3
2017-08-02T13:23:18.590Z,0.4
2017-08-02T13:25:17.575Z,0.3
2017-08-02T13:28:17.012Z,0.6
2017-08-02T13:29:16.219Z,0.8
2017-08-02T13:30:15.437Z,0.9
2017-08-02T13:31:15.028Z,0.8
2017-08-02T13:32:14.778Z,0.9
2017-08-02T13:33:14.494Z,1.3
2017-08-02T13:34:13.703Z,1.6
2017-08-02T13:35:13.155Z,1.7
2017-08-02T13:36:12.630Z,1.8
2017-08-02T13:37:12.331Z,1.4
2017-08-02T13:38:11.916Z,1.1
2017-08-02T13:39:11.628Z,0.9
2017-08-02T13:40:11.332Z,0.8
2017-08-02T13:41:10.517Z,0.7
2017-08-02T13:42:10.112Z,0.7
2017-08-02T13:43:09.820Z,0.8
2017-08-02T13:44:09.411Z,0.5
2017-08-02T13:45:09.133Z,0.5
2017-08-02T13:46:08.351Z,0.3
2017-08-02T13:46:38.627Z,0.3
2017-08-02T13:47:09.151Z,0.2
2017-08-02T13:47:39.429Z,0.2
2017-08-02T13:48:09.821Z,0.1
2017-08-02T13:48:40.339Z,0.1
2017-08-02T13:49:10.851Z,-0.1
2017-08-02T13:49:41.359Z,-0.1
2017-08-02T13:50:11.888Z,-0.3
2017-08-02T13:50:42.282Z,-0.3
2017-08-02T13:52:05.788Z,-0.4
2017-08-02T13:53:05.503Z,-0.5
2017-08-02T13:54:05.097Z,-0.5
2017-08-02T13:55:04.806Z,-0.5
2017-08-02T13:56:04.384Z,-0.5
2017-08-02T13:57:03.468Z,-0.7
2017-08-02T13:58:03.066Z,-0.7
2017-08-02T13:59:02.782Z,-0.6
2017-08-02T14:00:02.390Z,-0.7
2017-08-02T14:00:32.563Z,-0.7
2017-08-02T14:02:01.346Z,-0.6
2017-08-02T14:03:01.067Z,-0.8
2017-08-02T14:04:00.771Z,-0.8
2017-08-02T14:05:59.874Z,-0.8
2017-08-02T14:06:58.963Z,-0.8
2017-08-02T14:12:56.812Z,-0.6
2017-08-02T14:13:56.020Z,-0.6
2017-08-02T14:15:55.007Z,-0.4
2017-08-02T14:16:54.714Z,-0.3
2017-08-02T14:17:54.307Z,-0.2
2017-08-02T14:18:53.891Z,-0.3
2017-08-02T14:19:53.499Z,-0.4
2017-08-02T14:20:23.784Z,-0.4
2017-08-02T14:20:54.186Z,-0.5
2017-08-02T14:21:24.474Z,-0.5
2017-08-02T14:22:51.753Z,-0.6